Time;durP1;ratioP1;P1;durP2;ratioP2;P2;SDS_P1;SDS_P2;PMS_P1;PMS_P2;Temp;Humidity;BMP_temperature;BMP_pressure;BME280_temperature;BME280_humidity;BME280_pressure;Samples;Min_cycle;Max_cycle;Signal;HPM_P1;HPM_P2
2022/05/18 00:02:06;;;;;;;5.55;2.55;;;21.50;63.40;;;;;;10427511;28;20056;-59
2022/05/18 00:07:07;;;;;;;3.83;2.20;;;21.50;63.40;;;;;;10427365;28;20021;-60
2022/05/18 00:12:08;;;;;;;4.45;2.22;;;21.50;63.50;;;;;;10412112;28;20048;-59
2022/05/18 00:17:09;;;;;;;2.72;1.98;;;21.50;63.50;;;;;;10414281;28;20083;-60
2022/05/18 00:22:11;;;;;;;5.18;2.35;;;21.50;63.50;;;;;;10416517;28;20087;-58
2022/05/18 00:27:11;;;;;;;4.00;2.58;;;21.50;63.50;;;;;;10418541;28;20040;-60
2022/05/18 00:32:12;;;;;;;3.45;2.05;;;21.50;63.50;;;;;;10418915;28;20475;-59
2022/05/18 00:37:13;;;;;;;4.00;2.53;;;21.50;63.50;;;;;;10434584;28;20064;-60
2022/05/18 00:42:22;;;;;;;4.57;2.10;;;21.50;63.60;;;;;;10417100;28;20092;-59
2022/05/18 00:47:23;;;;;;;3.97;2.33;;;21.50;63.60;;;;;;10417880;28;20025;-59
2022/05/18 00:52:35;;;;;;;3.10;2.80;;;21.50;63.60;;;;;;10400615;28;20048;-59
2022/05/18 00:57:45;;;;;;;3.92;2.70;;;21.50;63.60;;;;;;10433430;28;20068;-59
2022/05/18 01:03:09;;;;;;;4.43;2.67;;;21.50;63.60;;;;;;10418134;28;20037;-60
2022/05/18 01:08:14;;;;;;;3.17;2.42;;;21.40;63.50;;;;;;10417203;28;20032;-60
2022/05/18 01:13:15;;;;;;;5.38;2.78;;;21.50;63.60;;;;;;10416487;28;20037;-59
2022/05/18 01:18:15;;;;;;;3.70;2.75;;;21.40;64.10;;;;;;10417470;28;20129;-59
2022/05/18 01:23:28;;;;;;;3.10;2.15;;;21.50;63.50;;;;;;10418227;28;20057;-59
2022/05/18 01:28:38;;;;;;;3.35;2.42;;;21.40;63.50;;;;;;10417066;28;20387;-60
2022/05/18 01:33:39;;;;;;;4.68;3.13;;;21.50;63.50;;;;;;10412264;28;20148;-60
2022/05/18 01:38:41;;;;;;;4.75;2.45;;;21.50;63.50;;;;;;10416079;28;20116;-60
2022/05/18 01:43:56;;;;;;;4.10;2.22;;;21.50;63.50;;;;;;10414955;28;20390;-59
2022/05/18 01:48:57;;;;;;;2.90;2.42;;;21.40;63.50;;;;;;10404884;28;20489;-59
2022/05/18 01:53:58;;;;;;;3.83;2.53;;;21.40;63.50;;;;;;10414544;28;20053;-60
2022/05/18 01:58:59;;;;;;;3.67;2.38;;;21.40;63.50;;;;;;10431500;28;20091;-60
2022/05/18 02:04:01;;;;;;;3.72;2.17;;;21.40;63.50;;;;;;10430753;28;20030;-58
2022/05/18 02:09:04;;;;;;;3.78;2.45;;;21.40;63.40;;;;;;10415899;28;20029;-59
2022/05/18 02:14:05;;;;;;;3.83;2.17;;;21.40;63.40;;;;;;10413874;28;20401;-59
2022/05/18 02:19:06;;;;;;;3.28;2.50;;;21.40;63.40;;;;;;10414688;28;20025;-58
2022/05/18 02:24:07;;;;;;;4.03;2.63;;;21.40;63.40;;;;;;10415739;28;20120;-60
2022/05/18 02:29:07;;;;;;;3.95;2.40;;;21.40;63.40;;;;;;10413231;28;20037;-60
2022/05/18 02:34:08;;;;;;;3.00;2.25;;;21.40;63.40;;;;;;10413891;28;20053;-60
2022/05/18 02:39:09;;;;;;;3.72;1.90;;;21.40;63.30;;;;;;10413561;28;20061;-59
2022/05/18 02:44:09;;;;;;;4.53;2.88;;;21.40;63.30;;;;;;10412357;28;20029;-59
2022/05/18 02:49:11;;;;;;;6.70;3.00;;;21.40;63.30;;;;;;10413617;28;20053;-59
2022/05/18 02:59:31;;;;;;;2.72;2.38;;;21.40;63.30;;;;;;10426745;28;20477;-60
2022/05/18 03:04:32;;;;;;;3.17;2.15;;;21.40;63.20;;;;;;10411593;28;20036;-59
2022/05/18 03:09:33;;;;;;;3.25;2.25;;;21.40;63.20;;;;;;10413222;28;20056;-60
2022/05/18 03:14:34;;;;;;;3.15;2.35;;;21.40;63.20;;;;;;10413092;28;20467;-59
2022/05/18 03:19:35;;;;;;;3.35;2.20;;;21.30;63.20;;;;;;10412626;28;20163;-59
2022/05/18 03:24:36;;;;;;;3.67;2.50;;;21.30;63.20;;;;;;10414629;28;20090;-59
2022/05/18 03:29:37;;;;;;;3.15;2.53;;;21.30;63.10;;;;;;10410494;28;20059;-60
2022/05/18 03:34:37;;;;;;;3.22;2.50;;;21.30;63.10;;;;;;10409606;28;20506;-59
2022/05/18 03:39:38;;;;;;;3.30;1.77;;;21.30;63.10;;;;;;10411110;28;20099;-60
2022/05/18 03:44:39;;;;;;;3.30;2.50;;;21.30;63.10;;;;;;10412440;28;20061;-60
2022/05/18 03:49:39;;;;;;;2.20;2.00;;;21.30;63.10;;;;;;10394540;28;20069;-60
2022/05/18 03:54:40;;;;;;;3.78;2.55;;;21.30;63.00;;;;;;10418176;28;20064;-58
2022/05/18 03:59:41;;;;;;;4.47;2.92;;;21.30;63.10;;;;;;10420168;28;20112;-60
2022/05/18 04:04:42;;;;;;;3.10;2.38;;;21.30;63.00;;;;;;10418614;28;20465;-59
2022/05/18 04:09:45;;;;;;;3.55;2.72;;;21.30;63.10;;;;;;10419173;28;20056;-60
2022/05/18 04:14:45;;;;;;;3.10;2.25;;;21.30;63.00;;;;;;10401062;28;20041;-59
2022/05/18 04:19:46;;;;;;;6.22;2.25;;;21.30;63.00;;;;;;10416400;28;20072;-59
2022/05/18 04:24:47;;;;;;;3.20;2.40;;;21.30;63.00;;;;;;10417751;28;20071;-59
2022/05/18 04:29:47;;;;;;;2.53;1.98;;;21.30;63.10;;;;;;10418080;28;20064;-59
2022/05/18 04:34:49;;;;;;;3.13;2.55;;;21.20;63.00;;;;;;10422967;28;20478;-59
2022/05/18 04:39:49;;;;;;;4.22;2.90;;;21.30;63.00;;;;;;10409159;28;20042;-59
2022/05/18 04:44:50;;;;;;;3.45;2.70;;;21.30;63.00;;;;;;10414074;28;20449;-59
2022/05/18 04:49:52;;;;;;;3.22;2.10;;;21.30;63.00;;;;;;10410240;28;20095;-59
2022/05/18 04:54:52;;;;;;;2.38;1.98;;;21.20;63.00;;;;;;10422363;28;20037;-59
2022/05/18 04:59:53;;;;;;;3.40;2.30;;;21.30;63.20;;;;;;10416100;28;20084;-57
2022/05/18 05:04:55;;;;;;;6.35;3.05;;;21.20;63.10;;;;;;10430989;28;20483;-60
2022/05/18 05:09:55;;;;;;;5.80;3.38;;;21.30;63.60;;;;;;10433549;28;20041;-59
2022/05/18 05:14:56;;;;;;;8.45;3.03;;;21.30;64.10;;;;;;10418589;28;20048;-59
2022/05/18 05:19:59;;;;;;;4.30;3.05;;;21.40;64.70;;;;;;10417344;28;20105;-60
2022/05/18 05:24:59;;;;;;;6.28;3.00;;;21.40;64.60;;;;;;10405694;28;20033;-58
2022/05/18 05:30:01;;;;;;;4.53;2.60;;;21.40;64.80;;;;;;10417059;28;20040;-60
2022/05/18 05:35:02;;;;;;;8.45;3.38;;;21.50;65.00;;;;;;10417203;28;20054;-58
2022/05/18 05:40:06;;;;;;;8.90;3.40;;;21.50;65.50;;;;;;10416054;28;20116;-59
2022/05/18 05:45:09;;;;;;;7.78;2.92;;;21.60;65.00;;;;;;10416442;28;20037;-58
2022/05/18 05:50:09;;;;;;;9.45;3.00;;;21.60;65.10;;;;;;10415686;28;20126;-59
2022/05/18 05:55:10;;;;;;;13.38;4.53;;;21.50;65.50;;;;;;10415323;28;20033;-59
2022/05/18 06:00:12;;;;;;;12.55;3.58;;;21.50;65.80;;;;;;10415529;28;20056;-57
2022/05/18 06:05:14;;;;;;;12.65;4.40;;;21.60;65.30;;;;;;10414226;28;20125;-62
2022/05/18 06:10:15;;;;;;;15.55;3.75;;;21.60;65.50;;;;;;10430858;28;20040;-57
2022/05/18 06:15:16;;;;;;;11.50;3.95;;;21.50;65.40;;;;;;10414117;28;20491;-58
2022/05/18 06:20:16;;;;;;;8.55;3.83;;;21.50;65.50;;;;;;10409836;28;20036;-58
2022/05/18 06:25:18;;;;;;;6.65;3.60;;;21.50;65.00;;;;;;10416695;28;20063;-58
2022/05/18 06:30:19;;;;;;;9.70;3.03;;;21.50;65.00;;;;;;10414937;28;20061;-58
2022/05/18 06:35:20;;;;;;;4.60;3.40;;;21.50;64.90;;;;;;10414431;28;20069;-58
2022/05/18 06:41:21;;;;;;;6.88;3.28;;;21.50;65.00;;;;;;10414415;28;20037;-58
2022/05/18 06:45:42;;;;;;;4.35;2.65;;;21.50;65.00;;;;;;10401550;28;20247;-58
2022/05/18 06:50:43;;;;;;;5.53;3.10;;;21.50;65.00;;;;;;10412553;28;20542;-58
2022/05/18 06:55:43;;;;;;;5.88;3.60;;;21.50;64.90;;;;;;10413794;28;20478;-58
2022/05/18 07:00:44;;;;;;;5.63;3.20;;;21.50;65.10;;;;;;10412972;28;20025;-59
2022/05/18 07:05:45;;;;;;;5.50;3.70;;;21.50;64.90;;;;;;10412883;28;20100;-59
2022/05/18 07:10:46;;;;;;;8.98;3.42;;;21.50;65.00;;;;;;10413161;28;20104;-58
2022/05/18 07:15:46;;;;;;;4.68;3.13;;;21.40;64.90;;;;;;10411795;28;20052;-59
2022/05/18 07:20:49;;;;;;;8.82;4.30;;;21.50;65.40;;;;;;10410622;28;20073;-59
2022/05/18 07:25:52;;;;;;;9.25;4.78;;;21.50;65.90;;;;;;10412253;28;20025;-59
2022/05/18 07:30:54;;;;;;;5.10;3.75;;;21.50;65.80;;;;;;10410592;28;20069;-57
2022/05/18 07:35:55;;;;;;;5.85;3.90;;;21.50;65.50;;;;;;10410267;28;20029;-58
2022/05/18 07:40:56;;;;;;;6.05;3.90;;;21.50;65.50;;;;;;10425326;28;20056;-58
2022/05/18 07:45:57;;;;;;;4.18;3.50;;;21.50;65.30;;;;;;10409064;28;20021;-59
2022/05/18 07:50:58;;;;;;;6.25;4.25;;;21.50;65.30;;;;;;10411483;28;20041;-59
2022/05/18 07:55:59;;;;;;;8.00;4.50;;;21.50;65.20;;;;;;10412422;28;20029;-58
2022/05/18 08:01:00;;;;;;;6.90;4.00;;;21.50;65.10;;;;;;10411851;28;20366;-59
2022/05/18 08:06:02;;;;;;;9.30;4.90;;;21.50;65.00;;;;;;10411874;28;20013;-59
2022/05/18 08:16:24;;;;;;;8.02;4.22;;;21.50;65.00;;;;;;10410908;28;20042;-59
2022/05/18 08:21:26;;;;;;;6.70;4.63;;;21.50;65.00;;;;;;10425893;28;20052;-58
2022/05/18 08:26:27;;;;;;;7.22;4.70;;;21.60;65.00;;;;;;10411864;28;20502;-58
2022/05/18 08:31:28;;;;;;;5.93;4.07;;;21.60;65.10;;;;;;10410506;28;20061;-59
2022/05/18 08:36:31;;;;;;;5.28;4.03;;;21.60;65.00;;;;;;10411134;28;20041;-58
2022/05/18 08:41:45;;;;;;;6.85;4.45;;;21.60;65.00;;;;;;10433698;28;20179;-58
2022/05/18 08:46:52;;;;;;;5.18;4.05;;;21.60;65.10;;;;;;10418878;28;20032;-58
2022/05/18 08:52:36;;;;;;;6.38;4.80;;;21.60;65.10;;;;;;10418642;28;20034;-58
2022/05/18 08:57:43;;;;;;;6.60;4.25;;;21.60;65.10;;;;;;10418222;28;20066;-58
2022/05/18 09:02:46;;;;;;;6.22;4.10;;;21.70;65.10;;;;;;10418388;28;20026;-58
2022/05/18 09:08:08;;;;;;;7.93;4.80;;;21.70;65.10;;;;;;10427176;28;20061;-58
2022/05/18 09:13:08;;;;;;;6.00;4.80;;;21.60;65.20;;;;;;10417902;28;20359;-58
2022/05/18 09:18:30;;;;;;;7.10;4.80;;;21.70;65.10;;;;;;10429379;28;20061;-58
2022/05/18 09:24:02;;;;;;;6.57;4.40;;;21.70;65.10;;;;;;10417150;28;20041;-58
2022/05/18 09:29:38;;;;;;;9.30;4.40;;;21.70;65.10;;;;;;10407043;28;20405;-58
2022/05/18 09:35:06;;;;;;;8.52;5.20;;;21.80;65.20;;;;;;10416230;28;20050;-58
2022/05/18 09:40:31;;;;;;;11.20;5.60;;;21.80;65.30;;;;;;10415688;28;20095;-55
2022/05/18 09:45:35;;;;;;;9.82;7.55;;;21.80;65.20;;;;;;10416750;28;20102;-57
2022/05/18 09:50:40;;;;;;;7.72;4.82;;;21.80;67.00;;;;;;10427119;28;20447;-56
2022/05/18 09:55:43;;;;;;;9.98;6.32;;;21.90;65.50;;;;;;10398801;28;20029;-57
2022/05/18 10:00:44;;;;;;;7.15;6.20;;;21.90;65.60;;;;;;10414491;28;20033;-57
2022/05/18 10:11:24;;;;;;;9.43;6.60;;;21.90;65.60;;;;;;10416426;28;20084;-57
2022/05/18 10:16:44;;;;;;;7.60;6.20;;;22.00;66.00;;;;;;10414434;28;20037;-57
2022/05/18 10:21:56;;;;;;;12.45;8.23;;;22.00;66.00;;;;;;10417339;28;20013;-57
2022/05/18 10:27:14;;;;;;;10.05;6.53;;;22.00;66.30;;;;;;10422919;28;20036;-58
2022/05/18 10:32:24;;;;;;;10.57;6.83;;;22.10;66.00;;;;;;10414564;28;20068;-58
2022/05/18 10:37:34;;;;;;;11.30;6.93;;;22.10;66.10;;;;;;10413107;28;20292;-57
2022/05/18 10:42:50;;;;;;;11.32;6.35;;;22.10;66.10;;;;;;10417148;28;20029;-58
2022/05/18 10:47:53;;;;;;;7.45;5.18;;;22.20;66.20;;;;;;10411597;28;20041;-58
2022/05/18 10:53:20;;;;;;;8.43;5.82;;;22.20;65.80;;;;;;10412611;28;20052;-57
2022/05/18 10:59:16;;;;;;;6.30;5.30;;;22.30;66.00;;;;;;10411883;28;20057;-55
2022/05/18 11:04:29;;;;;;;7.45;4.90;;;22.30;65.60;;;;;;10395719;28;20045;-57
2022/05/18 11:09:32;;;;;;;8.32;5.10;;;22.30;65.80;;;;;;10411852;28;20112;-57
2022/05/18 11:14:57;;;;;;;6.85;4.93;;;22.40;65.70;;;;;;10411067;28;20037;-56
2022/05/18 11:20:35;;;;;;;8.32;4.93;;;22.40;65.70;;;;;;10426131;28;20087;-57
2022/05/18 11:26:04;;;;;;;5.88;4.07;;;22.40;65.70;;;;;;10410554;28;20056;-56
2022/05/18 11:31:49;;;;;;;6.80;4.03;;;22.40;65.40;;;;;;10412010;28;20053;-56
2022/05/18 11:37:26;;;;;;;9.18;4.55;;;22.50;65.30;;;;;;10398805;28;20045;-60
2022/05/18 11:42:49;;;;;;;9.07;3.90;;;22.50;66.20;;;;;;10404815;28;20033;-57
2022/05/18 11:48:20;;;;;;;5.70;3.97;;;22.60;66.10;;;;;;10427179;28;20025;-58
2022/05/18 11:53:54;;;;;;;7.32;3.92;;;22.60;66.10;;;;;;10408760;28;20057;-59
2022/05/18 11:59:56;;;;;;;9.98;4.15;;;22.60;66.40;;;;;;10407946;28;20040;-59
2022/05/18 12:05:31;;;;;;;6.40;3.95;;;22.60;66.30;;;;;;10348663;28;20034;-60
2022/05/18 12:10:46;;;;;;;9.52;4.13;;;22.60;66.40;;;;;;10417643;28;20037;-60
2022/05/18 12:16:02;;;;;;;6.70;3.30;;;22.60;66.40;;;;;;10417374;28;20037;-60
2022/05/18 12:21:17;;;;;;;5.43;3.65;;;22.60;66.50;;;;;;10407408;28;20036;-59
2022/05/18 12:26:21;;;;;;;6.15;3.70;;;22.60;66.40;;;;;;10406855;28;20429;-59
2022/05/18 12:31:22;;;;;;;5.57;3.33;;;22.60;66.60;;;;;;10416956;28;20099;-60
2022/05/18 12:36:43;;;;;;;5.25;3.03;;;22.50;66.60;;;;;;10391460;28;20037;-61
2022/05/18 12:41:49;;;;;;;4.82;3.03;;;22.50;66.70;;;;;;10417018;28;20099;-60
2022/05/18 12:47:02;;;;;;;4.35;3.22;;;22.50;66.80;;;;;;10432377;28;20029;-60
2022/05/18 12:52:15;;;;;;;5.18;3.08;;;22.50;66.80;;;;;;10418699;28;20037;-60
2022/05/18 12:57:39;;;;;;;4.85;3.47;;;22.50;66.90;;;;;;10417687;28;20064;-61
2022/05/18 13:02:52;;;;;;;3.75;3.13;;;22.40;66.80;;;;;;10417785;28;20034;-60
2022/05/18 13:07:59;;;;;;;4.65;2.85;;;22.50;66.80;;;;;;10417308;28;20088;-60
2022/05/18 13:13:17;;;;;;;3.83;2.85;;;22.40;66.80;;;;;;10416100;28;20068;-60
2022/05/18 13:18:25;;;;;;;5.90;3.20;;;22.40;66.80;;;;;;10413355;28;20084;-58
2022/05/18 13:23:28;;;;;;;4.03;3.20;;;22.40;66.90;;;;;;10397825;28;20064;-59
2022/05/18 13:28:33;;;;;;;5.03;3.25;;;22.40;66.90;;;;;;10415963;28;20076;-59
2022/05/18 13:33:57;;;;;;;3.72;2.90;;;22.40;66.90;;;;;;10431166;28;20147;-59
2022/05/18 13:39:00;;;;;;;3.78;3.03;;;22.30;66.90;;;;;;10397892;28;20079;-60
2022/05/18 13:44:04;;;;;;;3.67;2.92;;;22.30;66.90;;;;;;10413447;28;20544;-61
2022/05/18 13:49:14;;;;;;;4.93;3.15;;;22.30;66.90;;;;;;10416620;28;20041;-60
2022/05/18 13:54:24;;;;;;;4.72;2.65;;;22.30;66.90;;;;;;10414127;28;20497;-60
2022/05/18 13:59:34;;;;;;;3.38;2.75;;;22.30;66.80;;;;;;10414231;28;20030;-60
2022/05/18 14:04:41;;;;;;;6.47;3.03;;;22.30;66.80;;;;;;10415399;28;20029;-60
2022/05/18 14:09:44;;;;;;;4.50;3.10;;;22.30;66.80;;;;;;10430541;28;20634;-60
2022/05/18 14:14:54;;;;;;;3.75;2.83;;;22.30;66.80;;;;;;10413311;28;20052;-60
2022/05/18 14:20:03;;;;;;;3.45;2.53;;;22.30;66.80;;;;;;10411110;28;20096;-61
2022/05/18 14:25:15;;;;;;;3.15;2.65;;;22.30;66.80;;;;;;10424001;28;20029;-61
2022/05/18 14:30:48;;;;;;;3.08;2.75;;;22.40;66.80;;;;;;10413302;28;20033;-60
2022/05/18 14:35:52;;;;;;;3.75;2.70;;;22.40;66.80;;;;;;10379726;28;20041;-60
2022/05/18 14:40:54;;;;;;;3.90;2.80;;;22.40;66.70;;;;;;10399208;28;20394;-60
2022/05/18 14:46:32;;;;;;;3.08;2.45;;;22.40;66.70;;;;;;10413826;28;20104;-60
2022/05/18 14:51:39;;;;;;;3.83;2.65;;;22.30;66.60;;;;;;10412240;28;20457;-61
2022/05/18 14:56:49;;;;;;;4.07;3.05;;;22.30;66.70;;;;;;10413706;28;20497;-61
2022/05/18 15:02:00;;;;;;;3.25;2.63;;;22.30;66.60;;;;;;10428077;28;20033;-60
2022/05/18 15:07:10;;;;;;;3.67;2.70;;;22.30;66.60;;;;;;10404144;28;20033;-61
2022/05/18 15:12:29;;;;;;;3.88;2.50;;;22.30;66.60;;;;;;10413080;28;20035;-62
2022/05/18 15:17:43;;;;;;;3.60;2.50;;;22.30;66.60;;;;;;10411924;28;20037;-60
2022/05/18 15:22:56;;;;;;;4.32;2.70;;;22.30;66.60;;;;;;10412431;28;20457;-60
2022/05/18 15:27:57;;;;;;;3.75;3.35;;;22.30;66.50;;;;;;10411212;28;20022;-61
2022/05/18 15:32:59;;;;;;;3.42;2.55;;;22.30;66.90;;;;;;10412570;28;20033;-62
2022/05/18 15:37:59;;;;;;;3.05;2.22;;;22.40;66.90;;;;;;10401996;28;20167;-61
2022/05/18 15:43:00;;;;;;;3.70;2.45;;;22.50;66.80;;;;;;10412549;28;20079;-60
2022/05/18 15:48:01;;;;;;;2.90;2.40;;;22.40;66.30;;;;;;10397676;28;20071;-62
2022/05/18 15:53:05;;;;;;;3.40;2.67;;;22.40;66.40;;;;;;10419930;28;20167;-59
2022/05/18 15:58:05;;;;;;;7.40;5.72;;;22.40;67.00;;;;;;10415507;28;20049;-61
2022/05/18 16:03:08;;;;;;;5.63;4.45;;;22.50;66.70;;;;;;10413550;28;20038;-63
2022/05/18 16:08:09;;;;;;;5.60;4.28;;;22.60;66.30;;;;;;10420153;28;20381;-63
2022/05/18 16:13:10;;;;;;;7.20;4.15;;;22.80;66.00;;;;;;10418324;28;20060;-62
2022/05/18 16:18:11;;;;;;;6.82;4.93;;;23.00;66.00;;;;;;10417669;28;20034;-63
2022/05/18 16:23:17;;;;;;;7.30;5.25;;;23.10;65.90;;;;;;10418850;28;20037;-63
2022/05/18 16:28:25;;;;;;;8.13;5.25;;;23.20;65.20;;;;;;10418737;28;20493;-62
2022/05/18 16:33:29;;;;;;;5.50;4.45;;;23.10;66.20;;;;;;10417769;28;20045;-61
2022/05/18 16:38:30;;;;;;;7.35;4.32;;;23.10;65.80;;;;;;10417429;28;20104;-61
2022/05/18 16:43:30;;;;;;;5.28;4.78;;;23.30;65.80;;;;;;10417237;28;20470;-62
2022/05/18 16:48:31;;;;;;;6.95;4.68;;;23.40;65.60;;;;;;10433680;28;20382;-62
2022/05/18 16:53:32;;;;;;;5.85;4.85;;;23.40;65.40;;;;;;10418187;28;20063;-61
2022/05/18 16:58:33;;;;;;;5.60;4.75;;;23.40;65.40;;;;;;10416083;28;21885;-61
2022/05/18 17:03:35;;;;;;;6.03;4.70;;;23.30;65.30;;;;;;10417793;28;20488;-61
2022/05/18 17:08:54;;;;;;;10.43;4.50;;;23.50;65.00;;;;;;10418049;28;20160;-62
2022/05/18 17:14:00;;;;;;;7.32;4.72;;;23.40;64.80;;;;;;10419087;28;20034;-61
2022/05/18 17:19:01;;;;;;;6.20;5.30;;;23.40;65.20;;;;;;10414991;28;20120;-63
2022/05/18 17:24:02;;;;;;;7.50;5.25;;;23.20;65.90;;;;;;10417237;28;20402;-61
2022/05/18 17:29:29;;;;;;;7.20;5.68;;;23.10;66.20;;;;;;10415807;28;20064;-61
2022/05/18 17:34:33;;;;;;;8.57;6.70;;;23.10;66.30;;;;;;10415923;28;20506;-61
2022/05/18 17:39:33;;;;;;;8.20;6.07;;;23.00;66.40;;;;;;10417207;28;20037;-61
2022/05/18 17:44:35;;;;;;;6.82;5.95;;;23.00;66.40;;;;;;10430594;28;20105;-61
2022/05/18 17:49:37;;;;;;;8.15;5.10;;;22.90;66.50;;;;;;10415714;28;20029;-63
2022/05/18 17:54:38;;;;;;;9.40;5.03;;;22.90;66.80;;;;;;10408661;28;20036;-62
2022/05/18 17:59:39;;;;;;;9.05;6.25;;;23.00;67.10;;;;;;10405529;28;20617;-62
2022/05/18 18:04:42;;;;;;;8.70;6.03;;;22.90;67.00;;;;;;10413088;28;20477;-63
2022/05/18 18:09:43;;;;;;;8.18;5.78;;;22.90;67.10;;;;;;10411566;28;20375;-63
2022/05/18 18:14:44;;;;;;;10.80;5.78;;;22.90;67.00;;;;;;10406369;28;20037;-62
2022/05/18 18:19:48;;;;;;;7.50;4.53;;;22.80;67.80;;;;;;10410396;28;20041;-62
2022/05/18 18:24:52;;;;;;;7.57;5.95;;;22.80;67.20;;;;;;10416165;28;20021;-63
2022/05/18 18:29:52;;;;;;;7.78;5.40;;;22.80;67.20;;;;;;10413614;28;20043;-63
2022/05/18 18:34:53;;;;;;;7.32;4.90;;;22.80;67.10;;;;;;10419283;28;20077;-63
2022/05/18 18:39:56;;;;;;;8.65;5.68;;;22.70;67.10;;;;;;10414478;28;20436;-62
2022/05/18 18:44:59;;;;;;;7.93;4.57;;;22.70;67.00;;;;;;10426771;28;20088;-62
2022/05/18 18:49:59;;;;;;;6.85;4.68;;;22.70;67.00;;;;;;10404352;28;20034;-61
2022/05/18 18:55:14;;;;;;;7.30;4.85;;;22.70;66.90;;;;;;10411868;28;20080;-61
2022/05/18 19:00:24;;;;;;;12.25;6.38;;;22.70;67.20;;;;;;10408518;28;20029;-63
2022/05/18 19:05:29;;;;;;;8.93;5.63;;;22.70;67.10;;;;;;10412707;28;20550;-61
2022/05/18 19:10:37;;;;;;;8.07;5.40;;;22.70;66.90;;;;;;10428620;28;20044;-62
2022/05/18 19:15:39;;;;;;;8.63;5.93;;;22.70;67.00;;;;;;10404605;28;20036;-62
2022/05/18 19:20:49;;;;;;;6.95;4.90;;;22.70;67.00;;;;;;10417986;28;20112;-62
2022/05/18 19:25:49;;;;;;;6.18;4.45;;;22.70;66.70;;;;;;10411946;28;20029;-62
2022/05/18 19:30:51;;;;;;;8.70;4.38;;;22.70;66.70;;;;;;10427673;28;20163;-64
2022/05/18 19:35:53;;;;;;;6.05;4.43;;;22.70;66.70;;;;;;10403034;28;20037;-63
2022/05/18 19:40:54;;;;;;;7.57;4.70;;;22.70;66.70;;;;;;10408412;28;20429;-63
2022/05/18 19:45:59;;;;;;;7.00;5.25;;;22.60;66.70;;;;;;10401917;28;20215;-62
2022/05/18 19:51:01;;;;;;;8.02;4.80;;;22.60;67.10;;;;;;10410697;28;20100;-61
2022/05/18 19:56:02;;;;;;;7.00;4.75;;;22.60;67.10;;;;;;10410356;28;20047;-61
2022/05/18 20:01:05;;;;;;;8.80;4.82;;;22.60;66.90;;;;;;10411786;28;20535;-60
2022/05/18 20:06:07;;;;;;;7.07;4.72;;;22.60;66.70;;;;;;10408682;28;20021;-61
2022/05/18 20:11:09;;;;;;;9.98;4.55;;;22.60;66.60;;;;;;10406271;28;20037;-61
2022/05/18 20:16:10;;;;;;;6.22;4.13;;;22.60;66.50;;;;;;10395619;28;20613;-61
2022/05/18 20:21:10;;;;;;;6.63;3.95;;;22.60;66.40;;;;;;10406946;28;20167;-61
2022/05/18 20:26:37;;;;;;;6.68;3.83;;;22.60;66.40;;;;;;10408219;28;20159;-61
2022/05/18 20:31:39;;;;;;;5.50;3.90;;;22.60;66.40;;;;;;10410814;28;20068;-61
2022/05/18 20:36:40;;;;;;;4.75;3.38;;;22.60;66.30;;;;;;10433018;28;20037;-61
2022/05/18 20:41:44;;;;;;;3.55;3.22;;;22.60;66.30;;;;;;10419128;28;20036;-61
2022/05/18 20:46:45;;;;;;;5.43;3.17;;;22.60;66.30;;;;;;10417797;28;20025;-61
2022/05/18 20:51:46;;;;;;;4.50;4.10;;;22.60;66.30;;;;;;10418970;28;20507;-61
2022/05/18 20:56:46;;;;;;;4.10;3.70;;;22.60;66.20;;;;;;10418964;28;20076;-61
2022/05/18 21:01:47;;;;;;;5.68;3.80;;;22.60;66.20;;;;;;10418457;28;20033;-61
2022/05/18 21:06:48;;;;;;;4.28;3.10;;;22.60;66.20;;;;;;10433776;28;20029;-61
2022/05/18 21:11:49;;;;;;;7.07;3.78;;;22.60;66.20;;;;;;10418439;28;20121;-61
2022/05/18 21:16:54;;;;;;;4.15;3.03;;;22.60;66.20;;;;;;10418149;28;20034;-61
2022/05/18 21:21:55;;;;;;;4.68;3.53;;;22.60;66.20;;;;;;10414865;28;20052;-61
2022/05/18 21:26:56;;;;;;;4.40;3.25;;;22.60;66.10;;;;;;10417800;28;20394;-61
2022/05/18 21:32:01;;;;;;;4.60;3.28;;;22.60;66.10;;;;;;10417247;28;20038;-58
2022/05/18 21:37:02;;;;;;;3.95;3.17;;;22.60;66.10;;;;;;10432486;28;20381;-60
2022/05/18 21:42:05;;;;;;;5.20;2.90;;;22.60;66.00;;;;;;10416753;28;20117;-61
2022/05/18 21:47:07;;;;;;;4.43;3.13;;;22.60;66.00;;;;;;10415513;28;20121;-61
2022/05/18 21:52:07;;;;;;;3.78;3.25;;;22.60;65.90;;;;;;10415414;28;20037;-61
2022/05/18 21:57:11;;;;;;;3.72;2.65;;;22.50;65.80;;;;;;10415254;28;20498;-61
2022/05/18 22:02:15;;;;;;;4.72;3.40;;;22.50;65.80;;;;;;10414860;28;20043;-62
2022/05/18 22:07:16;;;;;;;6.00;3.35;;;22.50;65.80;;;;;;10416281;28;20052;-61
2022/05/18 22:12:24;;;;;;;4.20;3.53;;;22.50;65.90;;;;;;10415409;28;20037;-61
2022/05/18 22:17:25;;;;;;;3.55;2.65;;;22.50;65.80;;;;;;10415804;28;20034;-61
2022/05/18 22:22:25;;;;;;;5.57;3.33;;;22.50;65.80;;;;;;10413666;28;20107;-61
2022/05/18 22:27:27;;;;;;;4.80;2.53;;;22.50;65.80;;;;;;10415300;28;20033;-61
2022/05/18 22:32:31;;;;;;;5.15;3.30;;;22.50;65.80;;;;;;10429897;28;20041;-61
2022/05/18 22:37:31;;;;;;;3.70;2.90;;;22.50;65.70;;;;;;10429923;28;20033;-61
2022/05/18 22:42:35;;;;;;;3.70;3.30;;;22.50;65.70;;;;;;10414316;28;20068;-61
2022/05/18 22:47:40;;;;;;;6.45;3.50;;;22.50;65.80;;;;;;10430098;28;20405;-61
2022/05/18 22:52:41;;;;;;;4.10;2.70;;;22.50;65.70;;;;;;10414406;28;20084;-61
2022/05/18 22:57:41;;;;;;;3.03;2.67;;;22.50;65.70;;;;;;10412395;28;20044;-61
2022/05/18 23:02:43;;;;;;;3.60;2.92;;;22.50;65.70;;;;;;10413624;28;20084;-61
2022/05/18 23:07:44;;;;;;;3.50;2.90;;;22.50;65.70;;;;;;10412806;28;20359;-61
2022/05/18 23:12:47;;;;;;;4.13;3.00;;;22.50;66.20;;;;;;10413692;28;20493;-60
2022/05/18 23:17:49;;;;;;;4.97;2.75;;;22.50;65.70;;;;;;10413579;28;20041;-61
2022/05/18 23:23:36;;;;;;;3.70;2.88;;;22.50;65.60;;;;;;10414182;28;20402;-60
2022/05/18 23:28:12;;;;;;;3.47;2.65;;;22.50;65.60;;;;;;10415556;28;20045;-61
2022/05/18 23:33:34;;;;;;;4.35;2.85;;;22.50;65.60;;;;;;10412999;28;20044;-61
2022/05/18 23:38:37;;;;;;;3.22;2.60;;;22.40;65.50;;;;;;10412953;28;20474;-61
2022/05/18 23:43:39;;;;;;;3.22;2.90;;;22.40;65.50;;;;;;10412778;28;20038;-61
2022/05/18 23:48:41;;;;;;;2.85;2.55;;;22.40;65.50;;;;;;10412893;28;20022;-61
2022/05/18 23:53:41;;;;;;;3.50;2.72;;;22.40;65.50;;;;;;10412639;28;20029;-61
2022/05/18 23:58:48;;;;;;;3.83;2.80;;;22.40;65.50;;;;;;10412646;28;20029;-61
